Terminal Aerodrome Forecast
Issued by NWS Louisville, KY

Home | Current Version | Previous Version | Text Only | Print | Product List | Glossary On
Versions: 1 2 3 4 5 6 7 8 9 10 11 12 13 14 15 16 17 18 19 20 21
000
FTUS43 KLMK 300900 AAB
TAFBWG
TAF AMD
KBWG 300945Z 3010/0106 VRB03KT P6SM FEW250
      TEMPO 3011/3013 3SM BR
     FM301300 25008G14KT P6SM FEW040 SCT250
     FM301800 27008G14KT P6SM VCTS SCT050CB BKN250
     FM010000 VRB04KT P6SM FEW050 SCT250=

USA.gov is the U.S. government's official web portal to all federal, state and local government web resources and services.